createdAt,value
2019-02-27T00:01:00.420Z,36.40
2019-02-27T00:03:29.715Z,33.90
2019-02-27T00:05:58.591Z,30.83
2019-02-27T00:08:27.568Z,33.60
2019-02-27T00:10:59.735Z,34.70
2019-02-27T00:13:31.174Z,33.00
2019-02-27T00:16:00.398Z,36.27
2019-02-27T00:18:29.682Z,32.10
2019-02-27T00:20:58.976Z,34.67
2019-02-27T00:23:28.088Z,32.70
2019-02-27T00:25:57.520Z,35.43
2019-02-27T00:28:26.997Z,32.70
2019-02-27T00:30:56.147Z,36.33
2019-02-27T00:33:27.943Z,35.30
2019-02-27T00:35:56.410Z,34.33
2019-02-27T00:38:25.816Z,35.17
2019-02-27T00:40:55.409Z,32.17
2019-02-27T00:43:26.001Z,35.50
2019-02-27T00:45:55.231Z,29.20
2019-02-27T00:48:26.196Z,34.13
2019-02-27T00:50:55.052Z,33.73
2019-02-27T00:53:24.520Z,31.20
2019-02-27T00:55:54.160Z,30.13
2019-02-27T00:58:26.852Z,30.43
2019-02-27T01:00:53.521Z,32.37
2019-02-27T01:03:26.003Z,29.87
2019-02-27T01:05:53.360Z,30.03
2019-02-27T01:08:25.029Z,30.37
2019-02-27T01:10:53.033Z,28.23
2019-02-27T01:13:22.109Z,26.60
2019-02-27T01:15:50.851Z,31.17
2019-02-27T01:18:20.455Z,29.07
2019-02-27T01:20:49.542Z,30.63
2019-02-27T01:23:18.814Z,29.13
2019-02-27T01:25:47.863Z,29.67
2019-02-27T01:28:17.166Z,30.23
2019-02-27T01:30:46.843Z,26.70
2019-02-27T01:33:15.945Z,28.03
2019-02-27T01:35:45.096Z,29.10
2019-02-27T01:38:13.933Z,29.40
2019-02-27T01:40:43.594Z,25.67
2019-02-27T01:43:12.631Z,33.00
2019-02-27T01:45:41.407Z,27.83
2019-02-27T01:48:10.241Z,27.70
2019-02-27T01:50:40.061Z,28.53
2019-02-27T01:53:09.851Z,26.77
2019-02-27T01:55:38.746Z,27.40
2019-02-27T01:58:27.505Z,28.70
2019-02-27T02:00:56.834Z,25.73
2019-02-27T02:03:26.242Z,27.33
2019-02-27T02:05:58.767Z,30.93
2019-02-27T02:08:26.065Z,26.77
2019-02-27T02:10:58.930Z,23.87
2019-02-27T02:13:32.306Z,26.00
2019-02-27T02:16:19.546Z,29.73
2019-02-27T02:22:21.931Z,22.67
2019-02-27T02:25:47.361Z,26.33
2019-02-27T02:28:57.564Z,32.13
2019-02-27T02:31:52.592Z,28.27
2019-02-27T02:35:06.163Z,34.07
2019-02-27T02:38:14.850Z,32.37
2019-02-27T02:41:25.166Z,27.93
2019-02-27T02:44:27.860Z,24.30
2019-02-27T02:47:21.017Z,33.27
2019-02-27T02:50:24.233Z,29.37
2019-02-27T02:53:33.802Z,29.10
2019-02-27T02:56:45.750Z,36.13
2019-02-27T02:59:47.287Z,28.43
2019-02-27T03:02:37.763Z,26.03
2019-02-27T03:05:59.751Z,27.00
2019-02-27T03:08:55.043Z,25.20
2019-02-27T03:12:03.249Z,25.83
2019-02-27T03:14:39.215Z,20.63
2019-02-27T03:17:34.573Z,17.77
2019-02-27T03:20:33.622Z,23.13
2019-02-27T03:23:29.776Z,20.77
2019-02-27T03:26:51.881Z,24.80
2019-02-27T03:29:54.571Z,16.80
2019-02-27T03:33:00.225Z,20.87
2019-02-27T03:36:14.340Z,18.07
2019-02-27T03:39:15.534Z,17.33
2019-02-27T03:42:26.889Z,16.77
2019-02-27T03:45:09.750Z,14.47
2019-02-27T03:48:07.464Z,15.63
2019-02-27T03:50:53.190Z,16.33
2019-02-27T03:53:37.514Z,14.93
2019-02-27T03:56:44.636Z,13.30
2019-02-27T03:59:58.693Z,15.70
2019-02-27T04:02:49.198Z,13.33
2019-02-27T04:05:55.735Z,14.73
2019-02-27T04:08:56.529Z,15.77
2019-02-27T04:11:26.026Z,15.17
2019-02-27T04:14:02.971Z,14.83
2019-02-27T04:16:29.286Z,15.00
2019-02-27T04:19:02.936Z,16.30
2019-02-27T04:21:28.895Z,13.27
2019-02-27T04:23:58.466Z,11.67
2019-02-27T04:26:27.255Z,15.63
2019-02-27T04:28:56.619Z,14.03
2019-02-27T04:31:29.587Z,16.57
2019-02-27T04:33:59.596Z,14.03
2019-02-27T04:36:27.355Z,18.20
2019-02-27T04:38:56.517Z,12.83
2019-02-27T04:41:25.368Z,19.17
2019-02-27T04:43:54.691Z,15.60
2019-02-27T04:46:24.037Z,15.27
2019-02-27T04:48:53.148Z,14.83
2019-02-27T04:51:23.422Z,16.67
2019-02-27T04:53:52.870Z,18.67
2019-02-27T04:56:23.389Z,19.30
2019-02-27T04:58:52.679Z,15.30
2019-02-27T05:01:21.824Z,17.83
2019-02-27T05:03:51.258Z,17.77
2019-02-27T05:06:20.468Z,19.40
2019-02-27T05:08:50.049Z,18.60
2019-02-27T05:11:19.149Z,20.23
2019-02-27T05:13:48.206Z,20.93
2019-02-27T05:16:17.850Z,23.07
2019-02-27T05:18:46.713Z,21.30
2019-02-27T05:21:18.927Z,17.00
2019-02-27T05:23:46.432Z,18.60
2019-02-27T05:26:15.288Z,18.40
2019-02-27T05:28:44.925Z,19.50
2019-02-27T05:31:18.183Z,15.10
2019-02-27T05:33:44.798Z,17.13
2019-02-27T05:36:14.382Z,19.93
2019-02-27T05:38:43.624Z,21.50
2019-02-27T05:41:12.949Z,15.27
2019-02-27T05:43:47.724Z,18.80
2019-02-27T05:46:15.014Z,15.63
2019-02-27T05:48:44.208Z,17.00
2019-02-27T05:51:13.041Z,17.43
2019-02-27T05:53:42.160Z,16.37
2019-02-27T05:56:15.580Z,16.77
2019-02-27T05:58:41.465Z,16.97
2019-02-27T06:01:11.110Z,21.83
2019-02-27T06:03:40.404Z,23.10
2019-02-27T06:06:11.897Z,18.97
2019-02-27T06:08:41.041Z,23.13
2019-02-27T06:11:10.404Z,22.67
2019-02-27T06:13:39.594Z,18.90
2019-02-27T06:16:09.300Z,18.73
2019-02-27T06:18:38.801Z,21.80
2019-02-27T06:21:07.867Z,18.87
2019-02-27T06:23:37.891Z,22.93
2019-02-27T06:26:07.362Z,19.10
2019-02-27T06:28:36.423Z,17.47
2019-02-27T06:31:05.477Z,23.97
2019-02-27T06:33:34.267Z,19.10
2019-02-27T06:36:05.352Z,27.83
2019-02-27T06:38:33.886Z,25.13
2019-02-27T06:41:03.317Z,23.27
2019-02-27T06:43:32.648Z,22.00
2019-02-27T06:46:02.273Z,27.07
2019-02-27T06:48:31.340Z,26.37
2019-02-27T06:51:00.971Z,20.73
2019-02-27T06:53:30.458Z,28.10
2019-02-27T06:56:02.808Z,22.13
2019-02-27T06:58:30.286Z,27.43
2019-02-27T07:00:59.818Z,23.67
2019-02-27T07:03:32.121Z,23.67
2019-02-27T07:06:00.328Z,23.57
2019-02-27T07:08:29.747Z,19.97
2019-02-27T07:11:10.471Z,21.40
2019-02-27T07:13:30.033Z,21.87
2019-02-27T07:15:59.389Z,21.73
2019-02-27T07:18:28.362Z,20.23
2019-02-27T07:20:58.289Z,21.13
2019-02-27T07:23:28.305Z,26.10
2019-02-27T07:25:58.138Z,20.17
2019-02-27T07:28:27.462Z,22.47
2019-02-27T07:30:56.611Z,24.13
2019-02-27T07:33:26.222Z,26.80
2019-02-27T07:35:55.030Z,33.33
2019-02-27T07:38:25.588Z,39.13
2019-02-27T07:40:54.624Z,36.70
2019-02-27T07:43:24.181Z,36.40
2019-02-27T07:45:54.335Z,37.63
2019-02-27T07:48:23.921Z,33.23
2019-02-27T07:50:53.464Z,39.00
2019-02-27T07:53:22.560Z,39.83
2019-02-27T07:55:51.713Z,33.80
2019-02-27T07:58:20.552Z,32.90
2019-02-27T08:00:49.849Z,39.23
2019-02-27T08:03:19.620Z,36.87
2019-02-27T08:05:48.968Z,33.97
2019-02-27T08:08:17.878Z,34.37
2019-02-27T08:10:47.553Z,37.70
2019-02-27T08:13:16.897Z,36.83
2019-02-27T08:15:46.343Z,49.30
2019-02-27T08:18:15.387Z,43.23
2019-02-27T08:20:44.975Z,51.60
2019-02-27T08:23:15.536Z,66.33
2019-02-27T08:25:44.847Z,49.90
2019-02-27T08:28:14.514Z,51.03
2019-02-27T08:30:43.582Z,48.03
2019-02-27T08:33:12.769Z,47.00
2019-02-27T08:35:43.919Z,55.43
2019-02-27T08:38:13.497Z,53.93
2019-02-27T08:40:43.243Z,49.63
2019-02-27T08:43:12.887Z,48.60
2019-02-27T08:45:42.798Z,49.43
2019-02-27T08:48:17.094Z,49.23
2019-02-27T08:50:42.884Z,45.33
2019-02-27T08:53:12.017Z,43.27
2019-02-27T08:55:41.261Z,51.93
2019-02-27T08:58:10.416Z,56.10
2019-02-27T09:00:39.526Z,46.67
2019-02-27T09:03:08.721Z,45.63
2019-02-27T09:05:38.607Z,41.33
2019-02-27T09:08:10.093Z,46.90
2019-02-27T09:10:38.832Z,46.73
2019-02-27T09:13:08.071Z,43.60
2019-02-27T09:15:37.518Z,43.00
2019-02-27T09:18:06.829Z,43.53
2019-02-27T09:20:36.132Z,46.40
2019-02-27T09:23:05.857Z,47.07
2019-02-27T09:25:35.810Z,36.13
2019-02-27T09:28:08.999Z,33.20
2019-02-27T09:30:35.644Z,41.83
2019-02-27T09:33:04.943Z,42.10
2019-02-27T09:35:38.501Z,36.27
2019-02-27T09:38:06.174Z,39.77
2019-02-27T09:40:38.541Z,38.50
2019-02-27T09:43:06.336Z,33.43
2019-02-27T09:45:35.904Z,30.37
2019-02-27T09:48:05.480Z,30.60
2019-02-27T09:50:39.300Z,31.77
2019-02-27T09:53:08.626Z,28.33
2019-02-27T09:55:38.443Z,33.60
2019-02-27T09:58:11.198Z,30.30
2019-02-27T10:00:59.578Z,31.43
2019-02-27T10:03:30.701Z,30.47
2019-02-27T10:05:59.931Z,34.27
2019-02-27T10:08:30.394Z,35.50
2019-02-27T10:11:02.779Z,33.03
2019-02-27T10:13:32.520Z,31.10
2019-02-27T10:16:03.622Z,30.33
2019-02-27T10:18:32.817Z,36.70
2019-02-27T10:21:02.535Z,30.37
2019-02-27T10:23:31.615Z,36.57
2019-02-27T10:26:02.878Z,33.63
2019-02-27T10:28:32.079Z,34.10
2019-02-27T10:31:01.239Z,30.27
2019-02-27T10:33:30.482Z,34.73
2019-02-27T10:36:03.250Z,30.20
2019-02-27T10:38:31.926Z,36.13
2019-02-27T10:41:02.925Z,35.60
2019-02-27T10:43:39.086Z,32.07
2019-02-27T10:46:07.977Z,29.97
2019-02-27T10:48:36.964Z,32.73
2019-02-27T10:51:09.532Z,29.77
2019-02-27T10:53:37.196Z,32.57
2019-02-27T10:56:06.392Z,34.03
2019-02-27T10:58:35.336Z,32.43
2019-02-27T11:01:04.658Z,28.10
2019-02-27T11:03:33.869Z,28.30
2019-02-27T11:06:03.202Z,29.17
2019-02-27T11:08:36.437Z,29.10
2019-02-27T11:11:16.457Z,31.27
2019-02-27T11:13:40.820Z,29.37
2019-02-27T11:16:15.553Z,28.07
2019-02-27T11:18:45.191Z,30.77
2019-02-27T11:21:14.943Z,25.37
2019-02-27T11:23:44.863Z,28.47
2019-02-27T11:26:17.660Z,28.20
2019-02-27T11:28:47.749Z,28.27
2019-02-27T11:31:19.928Z,25.40
2019-02-27T11:33:52.868Z,27.50
2019-02-27T11:36:22.992Z,26.13
2019-02-27T11:38:56.664Z,27.33
2019-02-27T11:41:26.447Z,26.23
2019-02-27T11:43:57.719Z,29.83
2019-02-27T11:46:27.048Z,25.13
2019-02-27T11:48:57.024Z,28.53
2019-02-27T11:51:28.454Z,23.63
2019-02-27T11:54:01.088Z,20.63
2019-02-27T11:56:32.302Z,21.40
2019-02-27T11:59:01.411Z,23.77
2019-02-27T12:01:32.153Z,22.27
2019-02-27T12:04:02.705Z,24.37
2019-02-27T12:06:31.922Z,20.93
2019-02-27T12:09:00.890Z,23.77
2019-02-27T12:11:30.430Z,25.07
2019-02-27T12:13:59.678Z,24.53
2019-02-27T12:16:29.048Z,27.10
2019-02-27T12:18:58.784Z,23.67
2019-02-27T12:21:28.088Z,20.97
2019-02-27T12:23:57.374Z,20.23
2019-02-27T12:26:26.588Z,21.70
2019-02-27T12:28:58.269Z,22.43
2019-02-27T12:31:29.127Z,22.07
2019-02-27T12:34:02.437Z,23.07
2019-02-27T12:36:30.006Z,21.40
2019-02-27T12:38:59.440Z,21.73
2019-02-27T12:41:30.013Z,22.47
2019-02-27T12:43:59.851Z,19.33
2019-02-27T12:46:28.844Z,19.83
2019-02-27T12:48:57.733Z,20.20
2019-02-27T12:51:26.567Z,17.37
2019-02-27T12:53:55.481Z,19.03
2019-02-27T12:56:25.958Z,20.30
2019-02-27T12:58:58.313Z,16.57
2019-02-27T13:01:26.171Z,19.27
2019-02-27T13:03:56.837Z,16.60
2019-02-27T13:06:26.101Z,14.77
2019-02-27T13:08:55.953Z,20.77
2019-02-27T13:11:25.365Z,17.50
2019-02-27T13:13:54.234Z,17.63
2019-02-27T13:16:24.035Z,19.30
2019-02-27T13:18:53.387Z,22.97
2019-02-27T13:21:22.209Z,21.90
2019-02-27T13:23:51.346Z,20.00
2019-02-27T13:26:20.427Z,18.53
2019-02-27T13:28:49.719Z,21.53
2019-02-27T13:31:19.260Z,17.93
2019-02-27T13:33:48.371Z,21.80
2019-02-27T13:36:17.903Z,14.87
2019-02-27T13:38:49.537Z,19.57
2019-02-27T13:41:18.616Z,19.80
2019-02-27T13:43:48.284Z,20.17
2019-02-27T13:46:20.185Z,21.53
2019-02-27T13:48:49.418Z,22.50
2019-02-27T13:51:18.798Z,20.00
2019-02-27T13:53:47.729Z,19.77
2019-02-27T13:56:17.164Z,19.13
2019-02-27T13:58:46.671Z,19.90
2019-02-27T14:01:16.150Z,21.93
2019-02-27T14:03:45.609Z,18.80
2019-02-27T14:06:16.011Z,17.43
2019-02-27T14:08:45.347Z,21.20
2019-02-27T14:11:14.849Z,20.60
2019-02-27T14:13:44.880Z,19.93
2019-02-27T14:16:14.093Z,21.30
2019-02-27T14:18:43.784Z,22.67
2019-02-27T14:21:14.862Z,22.70
2019-02-27T14:23:46.869Z,25.93
2019-02-27T14:26:14.492Z,23.37
2019-02-27T14:28:44.188Z,20.30
2019-02-27T14:31:13.350Z,22.53
2019-02-27T14:33:42.191Z,19.57
2019-02-27T14:36:11.361Z,22.97
2019-02-27T14:38:40.279Z,18.93
2019-02-27T14:41:11.147Z,20.80
2019-02-27T14:43:40.147Z,20.57
2019-02-27T14:46:11.507Z,19.33
2019-02-27T14:48:40.357Z,24.00
2019-02-27T14:51:11.212Z,27.73
2019-02-27T14:53:40.737Z,18.83
2019-02-27T14:56:10.264Z,19.33
2019-02-27T14:58:39.530Z,19.43
2019-02-27T15:01:11.835Z,20.20
2019-02-27T15:03:41.042Z,21.33
2019-02-27T15:06:10.532Z,18.30
2019-02-27T15:08:39.722Z,20.83
2019-02-27T15:11:08.774Z,18.37
2019-02-27T15:13:37.894Z,23.80
2019-02-27T15:16:07.182Z,22.47
2019-02-27T15:18:36.505Z,21.50
2019-02-27T15:21:05.463Z,19.90
2019-02-27T15:23:34.630Z,20.43
2019-02-27T15:26:03.692Z,20.60
2019-02-27T15:28:33.261Z,21.37
2019-02-27T15:31:02.855Z,19.20
2019-02-27T15:33:32.242Z,20.77
2019-02-27T15:36:01.235Z,23.87
2019-02-27T15:38:30.240Z,23.03
2019-02-27T15:41:02.401Z,26.37
2019-02-27T15:43:29.965Z,19.70
2019-02-27T15:45:59.186Z,19.60
2019-02-27T15:48:28.098Z,21.00
2019-02-27T15:50:57.466Z,20.20
2019-02-27T15:53:27.228Z,24.23
2019-02-27T15:55:56.452Z,20.03
2019-02-27T15:58:28.121Z,24.10
2019-02-27T16:00:56.271Z,22.30
2019-02-27T16:03:25.328Z,20.50
2019-02-27T16:05:54.979Z,20.77
2019-02-27T16:08:26.011Z,21.50
2019-02-27T16:10:55.305Z,22.73
2019-02-27T16:13:24.421Z,22.63
2019-02-27T16:15:53.632Z,20.07
2019-02-27T16:18:23.060Z,22.43
2019-02-27T16:20:52.529Z,18.03
2019-02-27T16:23:21.424Z,24.93
2019-02-27T16:25:54.112Z,20.63
2019-02-27T16:28:21.115Z,21.07
2019-02-27T16:30:50.213Z,27.17
2019-02-27T16:33:23.435Z,24.00
2019-02-27T16:35:49.583Z,26.00
2019-02-27T16:38:18.692Z,28.67
2019-02-27T16:40:52.074Z,21.53
2019-02-27T16:43:18.872Z,23.87
2019-02-27T16:45:48.492Z,20.17
2019-02-27T16:48:17.343Z,28.17
2019-02-27T16:50:48.214Z,22.27
2019-02-27T16:53:19.458Z,23.27
2019-02-27T16:55:48.430Z,24.13
2019-02-27T16:58:17.606Z,21.73
2019-02-27T17:00:47.251Z,18.90
2019-02-27T17:03:16.981Z,20.63
2019-02-27T17:05:46.184Z,23.27
2019-02-27T17:08:15.375Z,24.07
2019-02-27T17:10:44.592Z,20.20
2019-02-27T17:13:15.443Z,21.67
2019-02-27T17:15:44.814Z,21.73
2019-02-27T17:18:16.667Z,23.33
2019-02-27T17:20:46.577Z,19.37
2019-02-27T17:23:16.770Z,24.27
2019-02-27T17:25:45.596Z,24.07
2019-02-27T17:28:14.474Z,21.80
2019-02-27T17:30:43.936Z,21.50
2019-02-27T17:33:12.757Z,27.53
2019-02-27T17:35:41.870Z,25.53
2019-02-27T17:38:10.807Z,21.90
2019-02-27T17:40:41.561Z,23.60
2019-02-27T17:43:10.712Z,22.43
2019-02-27T17:45:39.811Z,22.77
2019-02-27T17:48:12.300Z,16.47
2019-02-27T17:50:40.200Z,21.37
2019-02-27T17:53:09.417Z,18.03
2019-02-27T17:55:41.592Z,20.70
2019-02-27T17:58:10.091Z,16.37
2019-02-27T18:00:41.356Z,18.67
2019-02-27T18:03:10.879Z,20.57
2019-02-27T18:05:39.753Z,19.30
2019-02-27T18:08:09.196Z,21.70
2019-02-27T18:10:39.155Z,23.00
2019-02-27T18:13:08.302Z,30.47
2019-02-27T18:15:37.360Z,20.50
2019-02-27T18:18:09.092Z,21.37
2019-02-27T18:20:37.376Z,25.03
2019-02-27T18:23:06.729Z,23.47
2019-02-27T18:25:41.093Z,23.40
2019-02-27T18:28:07.272Z,21.67
2019-02-27T18:30:37.268Z,22.90
2019-02-27T18:33:06.383Z,23.40
2019-02-27T18:35:35.820Z,25.10
2019-02-27T18:38:05.004Z,25.47
2019-02-27T18:40:34.282Z,22.50
2019-02-27T18:43:03.446Z,26.73
2019-02-27T18:45:32.883Z,29.67
2019-02-27T18:48:01.774Z,24.03
2019-02-27T18:50:30.895Z,24.17
2019-02-27T18:52:59.776Z,31.03
2019-02-27T18:55:30.703Z,27.13
2019-02-27T18:57:59.594Z,24.07
2019-02-27T19:00:28.790Z,23.47
2019-02-27T19:02:58.015Z,24.83
2019-02-27T19:05:27.251Z,29.47
2019-02-27T19:07:56.311Z,26.47
2019-02-27T19:10:25.923Z,25.80
2019-02-27T19:12:55.193Z,24.80
2019-02-27T19:15:24.320Z,26.47
2019-02-27T19:17:54.202Z,25.73
2019-02-27T19:20:25.465Z,27.50
2019-02-27T19:22:55.074Z,28.00
2019-02-27T19:25:24.882Z,25.13
2019-02-27T19:27:54.159Z,30.27
2019-02-27T19:30:23.222Z,25.07
2019-02-27T19:32:57.822Z,28.87
2019-02-27T19:35:23.637Z,26.57
2019-02-27T19:37:53.270Z,32.13
2019-02-27T19:40:23.642Z,26.90
2019-02-27T19:42:57.547Z,32.27
2019-02-27T19:45:27.122Z,30.10
2019-02-27T19:47:56.464Z,26.00
2019-02-27T19:50:25.662Z,31.47
2019-02-27T19:52:54.777Z,27.67
2019-02-27T19:55:26.758Z,27.83
2019-02-27T19:57:54.828Z,35.30
2019-02-27T20:00:25.325Z,32.00
2019-02-27T20:02:57.493Z,27.43
2019-02-27T20:05:25.276Z,31.30
2019-02-27T20:07:54.657Z,34.33
2019-02-27T20:10:28.916Z,31.90
2019-02-27T20:12:54.821Z,26.30
2019-02-27T20:15:24.186Z,28.03
2019-02-27T20:17:53.433Z,28.87
2019-02-27T20:20:22.801Z,30.63
2019-02-27T20:22:53.471Z,28.87
2019-02-27T20:25:23.507Z,26.53
2019-02-27T20:27:52.458Z,29.70
2019-02-27T20:30:21.846Z,30.13
2019-02-27T20:32:50.882Z,30.07
2019-02-27T20:35:20.756Z,27.30
2019-02-27T20:37:51.262Z,26.37
2019-02-27T20:40:20.285Z,28.63
2019-02-27T20:42:51.921Z,31.73
2019-02-27T20:45:20.817Z,26.33
2019-02-27T20:47:50.617Z,25.73
2019-02-27T20:50:34.145Z,28.60
2019-02-27T20:52:53.444Z,27.50
2019-02-27T20:55:23.517Z,29.47
2019-02-27T20:57:52.540Z,26.40
2019-02-27T21:00:22.247Z,32.20
2019-02-27T21:02:53.486Z,27.77
2019-02-27T21:05:22.789Z,27.07
2019-02-27T21:07:51.871Z,30.00
2019-02-27T21:10:21.879Z,27.17
2019-02-27T21:12:54.326Z,28.83
2019-02-27T21:15:21.823Z,26.73
2019-02-27T21:17:51.405Z,29.00
2019-02-27T21:20:20.729Z,25.30
2019-02-27T21:22:49.595Z,25.57
2019-02-27T21:25:19.104Z,25.77
2019-02-27T21:27:51.088Z,30.20
2019-02-27T21:30:27.187Z,23.13
2019-02-27T21:32:51.907Z,26.03
2019-02-27T21:35:22.219Z,27.43
2019-02-27T21:37:51.533Z,29.23
2019-02-27T21:40:20.980Z,27.80
2019-02-27T21:42:51.953Z,28.67
2019-02-27T21:45:21.705Z,28.87
2019-02-27T21:47:52.658Z,28.97
2019-02-27T21:50:21.913Z,28.83
2019-02-27T21:52:54.371Z,27.47
2019-02-27T21:55:23.676Z,29.90
2019-02-27T21:57:52.896Z,33.97
2019-02-27T22:00:23.593Z,27.30
2019-02-27T22:02:56.320Z,30.20
2019-02-27T22:05:27.490Z,29.27
2019-02-27T22:07:56.534Z,29.93
2019-02-27T22:10:25.848Z,29.37
2019-02-27T22:12:55.336Z,31.63
2019-02-27T22:15:30.026Z,25.10
2019-02-27T22:18:00.884Z,27.10
2019-02-27T22:20:29.892Z,34.20
2019-02-27T22:22:59.336Z,34.13
2019-02-27T22:25:31.076Z,33.20
2019-02-27T22:27:59.918Z,34.40
2019-02-27T22:30:31.771Z,30.60
2019-02-27T22:32:59.848Z,29.20
2019-02-27T22:35:30.529Z,31.17
2019-02-27T22:38:00.546Z,32.83
2019-02-27T22:40:29.437Z,38.80
2019-02-27T22:42:58.972Z,30.93
2019-02-27T22:45:28.048Z,31.03
2019-02-27T22:47:57.581Z,31.13
2019-02-27T22:50:26.574Z,30.07
2019-02-27T22:52:55.777Z,35.17
2019-02-27T22:55:24.969Z,34.43
2019-02-27T22:57:54.882Z,33.60
2019-02-27T23:00:56.720Z,32.00
2019-02-27T23:03:26.432Z,29.80
2019-02-27T23:05:56.081Z,33.67
2019-02-27T23:08:25.190Z,30.93
2019-02-27T23:10:54.460Z,34.80
2019-02-27T23:13:23.528Z,34.03
2019-02-27T23:15:58.028Z,35.47
2019-02-27T23:18:24.195Z,34.53
2019-02-27T23:20:55.410Z,34.47
2019-02-27T23:23:24.989Z,32.67
2019-02-27T23:25:54.401Z,36.10
2019-02-27T23:28:25.923Z,33.33
2019-02-27T23:30:55.187Z,36.63
2019-02-27T23:33:24.804Z,34.33
2019-02-27T23:35:54.028Z,36.00
2019-02-27T23:38:23.012Z,38.80
2019-02-27T23:40:52.157Z,32.43
2019-02-27T23:43:21.905Z,34.40
2019-02-27T23:45:51.204Z,34.33
2019-02-27T23:48:20.278Z,39.87
2019-02-27T23:50:49.119Z,34.67
2019-02-27T23:53:18.016Z,38.63
2019-02-27T23:55:47.929Z,32.17
2019-02-27T23:58:17.620Z,38.07
